Time;durP1;ratioP1;P1;durP2;ratioP2;P2;SDS_P1;SDS_P2;PMS_P1;PMS_P2;Temp;Humidity;BMP_temperature;BMP_pressure;BME280_temperature;BME280_humidity;BME280_pressure;Samples;Min_cycle;Max_cycle;Signal;HPM_P1;HPM_P2
2022/09/02 00:01:23;;;;;;;5.75;5.18;;;14.70;99.90;;;;;;5095491;28;20397;-69
2022/09/02 00:03:54;;;;;;;7.25;5.28;;;14.70;99.90;;;;;;5102577;28;20067;-68
2022/09/02 00:06:21;;;;;;;6.05;5.20;;;14.70;99.90;;;;;;5081362;28;20512;-69
2022/09/02 00:08:49;;;;;;;5.82;5.30;;;14.70;99.90;;;;;;5073235;28;20036;-69
2022/09/02 00:11:20;;;;;;;5.88;5.28;;;14.70;99.90;;;;;;5087967;28;20545;-69
2022/09/02 00:13:48;;;;;;;7.23;4.90;;;14.70;99.90;;;;;;5093315;28;20465;-69
2022/09/02 00:16:17;;;;;;;6.50;5.40;;;14.60;99.90;;;;;;5089425;28;20304;-69
2022/09/02 00:18:46;;;;;;;7.50;5.68;;;14.60;99.90;;;;;;5089093;28;20048;-69
2022/09/02 00:21:14;;;;;;;6.70;5.40;;;14.60;99.90;;;;;;5096178;28;20048;-69
2022/09/02 00:23:43;;;;;;;7.10;5.22;;;14.60;99.90;;;;;;5095001;28;20050;-70
2022/09/02 00:26:12;;;;;;;7.40;5.38;;;14.70;99.90;;;;;;5072860;28;20047;-69
2022/09/02 00:28:40;;;;;;;6.15;5.55;;;14.70;99.90;;;;;;5097302;28;20158;-69
2022/09/02 00:31:23;;;;;;;6.05;5.20;;;14.60;99.90;;;;;;5103123;28;20468;-69
2022/09/02 00:33:52;;;;;;;7.60;5.53;;;14.60;99.90;;;;;;5110787;27;20498;-69
2022/09/02 00:36:20;;;;;;;6.40;5.80;;;14.60;99.90;;;;;;5096554;28;20052;-69
2022/09/02 00:38:47;;;;;;;6.40;5.50;;;14.60;99.90;;;;;;5097135;27;20411;-69
2022/09/02 00:41:17;;;;;;;6.43;5.55;;;14.50;99.90;;;;;;5102070;28;20039;-68
2022/09/02 00:43:52;;;;;;;7.70;5.55;;;14.50;99.90;;;;;;5096113;28;20143;-68
2022/09/02 00:46:23;;;;;;;6.53;5.28;;;14.50;99.90;;;;;;5118725;27;20046;-68
2022/09/02 00:49:03;;;;;;;6.10;5.50;;;14.50;99.90;;;;;;5084570;28;20048;-68
2022/09/02 00:51:41;;;;;;;7.65;5.40;;;14.40;99.90;;;;;;5101310;28;20039;-69
2022/09/02 00:54:11;;;;;;;5.85;5.35;;;14.40;99.90;;;;;;5073378;28;20445;-69
2022/09/02 00:56:42;;;;;;;6.35;5.78;;;14.30;99.90;;;;;;5108810;27;20071;-69
2022/09/02 00:59:24;;;;;;;6.03;5.10;;;14.30;99.90;;;;;;5091914;28;20155;-69
2022/09/02 01:01:51;;;;;;;6.03;5.50;;;14.20;99.90;;;;;;5090948;28;20114;-70
2022/09/02 01:04:18;;;;;;;7.05;5.45;;;14.10;99.90;;;;;;5099228;28;20129;-69
2022/09/02 01:06:47;;;;;;;6.30;5.28;;;14.10;99.90;;;;;;5085583;28;20069;-68
2022/09/02 01:09:16;;;;;;;6.30;5.70;;;14.10;99.90;;;;;;5122463;27;20093;-68
2022/09/02 01:11:47;;;;;;;7.20;5.70;;;14.10;99.90;;;;;;5090268;28;20487;-69
2022/09/02 01:14:15;;;;;;;7.77;5.07;;;14.00;99.90;;;;;;5082015;28;20055;-69
2022/09/02 01:16:50;;;;;;;6.10;5.50;;;13.90;99.90;;;;;;5111404;27;20039;-68
2022/09/02 01:19:36;;;;;;;5.60;5.10;;;13.90;99.90;;;;;;5082561;28;20043;-68
2022/09/02 01:22:15;;;;;;;5.88;5.38;;;13.90;99.90;;;;;;5091361;28;20069;-69
2022/09/02 01:24:43;;;;;;;6.28;5.18;;;13.80;99.90;;;;;;5096527;28;20113;-70
2022/09/02 01:27:18;;;;;;;7.35;5.35;;;13.80;99.90;;;;;;5094706;28;20043;-69
2022/09/02 01:29:51;;;;;;;5.90;5.40;;;13.80;99.90;;;;;;5088077;28;20048;-68
2022/09/02 01:32:20;;;;;;;5.45;4.95;;;13.70;99.90;;;;;;5094330;28;20111;-70
2022/09/02 01:34:47;;;;;;;5.88;5.30;;;13.70;99.90;;;;;;5096038;28;20089;-69
2022/09/02 01:37:15;;;;;;;8.10;5.65;;;13.70;99.90;;;;;;5082422;28;20122;-69
2022/09/02 01:39:44;;;;;;;7.35;5.30;;;13.60;99.90;;;;;;5093636;28;20482;-68
2022/09/02 01:42:12;;;;;;;7.03;5.47;;;13.60;99.90;;;;;;5096861;28;20044;-69
2022/09/02 01:44:44;;;;;;;6.47;5.88;;;13.50;99.90;;;;;;5113101;27;20090;-69
2022/09/02 01:47:17;;;;;;;7.00;5.43;;;13.50;99.90;;;;;;5087178;28;20091;-69
2022/09/02 01:49:49;;;;;;;6.18;5.40;;;13.40;99.90;;;;;;5080933;28;20506;-69
2022/09/02 01:52:17;;;;;;;9.60;5.68;;;13.30;99.90;;;;;;5077018;28;20410;-69
2022/09/02 01:54:46;;;;;;;5.72;5.18;;;13.20;99.90;;;;;;5098246;28;20047;-69
2022/09/02 01:57:13;;;;;;;5.80;5.30;;;13.20;99.90;;;;;;5096286;28;20047;-69
2022/09/02 01:59:43;;;;;;;6.63;5.60;;;13.20;99.90;;;;;;5096230;28;20122;-69
2022/09/02 02:02:12;;;;;;;6.22;5.47;;;13.10;99.90;;;;;;5088290;28;20044;-68
2022/09/02 02:04:40;;;;;;;6.72;5.22;;;13.10;99.90;;;;;;5083418;28;20371;-69
2022/09/02 02:07:08;;;;;;;6.88;5.20;;;13.00;99.90;;;;;;5085224;28;20443;-69
2022/09/02 02:09:35;;;;;;;5.78;5.28;;;13.00;99.90;;;;;;5061841;28;20044;-70
2022/09/02 02:12:05;;;;;;;8.82;5.30;;;12.90;99.90;;;;;;5084015;28;20041;-70
2022/09/02 02:14:32;;;;;;;5.50;5.00;;;12.90;99.90;;;;;;5088434;28;20037;-69
2022/09/02 02:17:00;;;;;;;6.25;5.38;;;12.90;99.90;;;;;;5078159;28;20488;-70
2022/09/02 02:19:28;;;;;;;5.32;4.82;;;12.90;99.90;;;;;;5108282;28;20577;-70
2022/09/02 02:21:57;;;;;;;10.50;5.20;;;12.90;99.90;;;;;;5091585;28;20120;-68
2022/09/02 02:24:25;;;;;;;6.80;5.38;;;12.90;99.90;;;;;;5101718;28;20420;-68
2022/09/02 02:26:53;;;;;;;5.80;5.22;;;12.80;99.90;;;;;;5100135;28;20036;-68
2022/09/02 02:29:21;;;;;;;5.43;4.90;;;12.90;99.90;;;;;;5104532;28;20119;-68
2022/09/02 02:31:49;;;;;;;5.40;4.90;;;12.80;99.90;;;;;;5119036;27;20436;-69
2022/09/02 02:34:17;;;;;;;5.10;4.60;;;12.80;99.90;;;;;;5091632;28;20067;-69
2022/09/02 02:36:46;;;;;;;6.78;4.90;;;12.90;99.90;;;;;;5105727;28;20557;-69
2022/09/02 02:39:13;;;;;;;5.68;4.70;;;12.80;99.90;;;;;;5084592;28;20136;-68
2022/09/02 02:41:42;;;;;;;6.05;4.93;;;12.90;99.90;;;;;;5091674;28;20432;-69
2022/09/02 02:44:12;;;;;;;5.32;4.82;;;12.80;99.90;;;;;;5085772;28;20055;-69
2022/09/02 02:46:39;;;;;;;7.65;5.32;;;12.80;99.90;;;;;;5101030;27;20233;-69
2022/09/02 02:49:07;;;;;;;5.28;4.70;;;12.80;99.90;;;;;;5071454;28;20067;-69
2022/09/02 02:51:35;;;;;;;6.05;4.68;;;12.80;99.90;;;;;;5090131;28;20075;-69
2022/09/02 02:54:04;;;;;;;5.85;4.50;;;12.80;99.90;;;;;;5101024;27;20502;-68
2022/09/02 02:56:31;;;;;;;5.28;4.63;;;12.80;99.90;;;;;;5098868;28;20056;-68
2022/09/02 02:59:02;;;;;;;5.40;4.90;;;12.80;99.90;;;;;;5087171;28;20043;-68
2022/09/02 03:01:32;;;;;;;6.35;4.85;;;12.80;99.90;;;;;;5112991;27;20075;-68
2022/09/02 03:03:59;;;;;;;8.88;4.80;;;12.70;99.90;;;;;;5090955;28;20048;-68
2022/09/02 03:06:28;;;;;;;6.20;5.40;;;12.80;99.90;;;;;;5075481;28;20545;-69
2022/09/02 03:08:57;;;;;;;5.40;4.85;;;12.70;99.90;;;;;;5065731;28;20044;-69
2022/09/02 03:11:26;;;;;;;4.97;4.47;;;12.70;99.90;;;;;;5108688;27;20059;-68
2022/09/02 03:13:55;;;;;;;5.50;4.90;;;12.60;99.90;;;;;;5107980;27;20040;-70
2022/09/02 03:16:22;;;;;;;5.45;4.68;;;12.60;99.90;;;;;;5074558;28;20569;-68
2022/09/02 03:18:51;;;;;;;5.30;4.38;;;12.60;99.90;;;;;;5100421;28;20454;-70
2022/09/02 03:21:18;;;;;;;5.13;4.63;;;12.60;99.90;;;;;;5097592;27;20120;-69
2022/09/02 03:23:47;;;;;;;5.90;4.45;;;12.60;99.90;;;;;;5072127;28;20070;-70
2022/09/02 03:26:19;;;;;;;5.85;4.82;;;12.60;99.90;;;;;;5089757;28;20115;-70
2022/09/02 03:28:48;;;;;;;5.10;4.60;;;12.60;99.90;;;;;;5088137;28;20486;-69
2022/09/02 03:31:19;;;;;;;6.32;4.40;;;12.70;99.90;;;;;;5083930;28;20032;-69
2022/09/02 03:33:47;;;;;;;7.35;4.38;;;12.60;99.90;;;;;;5083316;28;20117;-68
2022/09/02 03:36:28;;;;;;;7.47;4.85;;;12.70;99.90;;;;;;5089729;28;20126;-69
2022/09/02 03:38:57;;;;;;;5.43;4.55;;;12.70;99.90;;;;;;5089639;28;20047;-69
2022/09/02 03:41:26;;;;;;;4.90;4.32;;;12.70;99.90;;;;;;5088414;28;20460;-69
2022/09/02 03:43:55;;;;;;;5.28;4.60;;;12.70;99.90;;;;;;5094898;28;20553;-69
2022/09/02 03:46:22;;;;;;;5.07;4.57;;;12.70;99.90;;;;;;5091736;28;20846;-69
2022/09/02 03:48:50;;;;;;;6.28;4.60;;;12.70;99.90;;;;;;5089143;28;20555;-69
2022/09/02 03:51:20;;;;;;;5.00;4.40;;;12.70;99.90;;;;;;5080800;28;20039;-70
2022/09/02 03:53:48;;;;;;;5.20;4.30;;;12.70;99.90;;;;;;5101829;27;20635;-69
2022/09/02 03:56:16;;;;;;;6.20;4.70;;;12.70;99.90;;;;;;5110346;27;20517;-69
2022/09/02 03:58:46;;;;;;;6.40;4.38;;;12.70;99.90;;;;;;5096583;28;20421;-69
2022/09/02 04:01:22;;;;;;;6.90;4.55;;;12.70;99.90;;;;;;5078401;28;20060;-69
2022/09/02 04:03:51;;;;;;;8.77;4.85;;;12.70;99.90;;;;;;5092443;28;20039;-69
2022/09/02 04:06:21;;;;;;;5.60;4.72;;;12.70;99.90;;;;;;5080411;28;20541;-70
2022/09/02 04:08:49;;;;;;;5.57;5.00;;;12.60;99.90;;;;;;5103550;27;20040;-69
2022/09/02 04:11:20;;;;;;;5.80;4.80;;;12.60;99.90;;;;;;5074309;28;20090;-70
2022/09/02 04:13:51;;;;;;;5.40;4.90;;;12.60;99.90;;;;;;5095250;27;20495;-69
2022/09/02 04:16:33;;;;;;;5.40;4.90;;;12.60;99.90;;;;;;5101179;27;20592;-69
2022/09/02 04:19:07;;;;;;;7.10;4.68;;;12.60;99.90;;;;;;5090975;28;20552;-69
2022/09/02 04:21:38;;;;;;;6.22;4.68;;;12.60;99.90;;;;;;5101114;28;20406;-69
2022/09/02 04:24:08;;;;;;;5.55;4.88;;;12.60;99.90;;;;;;5089761;28;20066;-69
2022/09/02 04:26:38;;;;;;;11.93;5.22;;;12.60;99.90;;;;;;5075803;28;20051;-69
2022/09/02 04:29:13;;;;;;;6.28;4.90;;;12.60;99.90;;;;;;5088386;28;20578;-69
2022/09/02 04:31:42;;;;;;;6.28;4.50;;;12.60;99.90;;;;;;5113844;27;20040;-69
2022/09/02 04:34:10;;;;;;;5.22;4.72;;;12.60;99.90;;;;;;5090498;28;20222;-69
2022/09/02 04:36:39;;;;;;;5.43;4.70;;;12.60;99.90;;;;;;5088271;28;20040;-69
2022/09/02 04:39:08;;;;;;;5.22;4.72;;;12.60;99.90;;;;;;5088929;28;20097;-69
2022/09/02 04:41:37;;;;;;;6.80;4.70;;;12.70;99.90;;;;;;5076912;28;20446;-69
2022/09/02 04:44:07;;;;;;;5.77;4.30;;;12.70;99.90;;;;;;5091784;28;20040;-69
2022/09/02 04:46:38;;;;;;;8.10;4.68;;;12.70;99.90;;;;;;5075648;28;20804;-68
2022/09/02 04:49:10;;;;;;;;;;;12.70;99.90;;;;;;5087342;28;20494;-69
2022/09/02 04:51:40;;;;;;;9.00;5.13;;;12.80;99.90;;;;;;5091270;28;19924;-69
2022/09/02 04:54:09;;;;;;;6.85;4.80;;;12.80;99.90;;;;;;5114095;27;20456;-69
2022/09/02 04:56:39;;;;;;;6.55;4.65;;;12.90;99.90;;;;;;5072719;28;20126;-69
2022/09/02 04:59:08;;;;;;;5.75;4.95;;;12.90;99.90;;;;;;5099973;27;20044;-68
2022/09/02 05:01:37;;;;;;;8.70;4.78;;;12.90;99.90;;;;;;5090421;28;20036;-69
2022/09/02 05:04:11;;;;;;;6.38;5.10;;;13.00;99.90;;;;;;5068165;28;20059;-68
2022/09/02 05:06:43;;;;;;;9.50;5.32;;;13.00;99.90;;;;;;5067713;28;20048;-67
2022/09/02 05:09:15;;;;;;;5.25;4.70;;;13.10;99.90;;;;;;5065486;28;20044;-68
2022/09/02 05:11:47;;;;;;;6.07;5.30;;;13.10;99.90;;;;;;5108820;27;20120;-68
2022/09/02 05:14:16;;;;;;;8.50;4.90;;;13.20;99.90;;;;;;5072328;28;20505;-68
2022/09/02 05:16:44;;;;;;;7.07;4.78;;;13.20;99.90;;;;;;5096186;28;20044;-69
2022/09/02 05:19:15;;;;;;;6.90;4.78;;;13.30;99.90;;;;;;5110823;27;20517;-68
2022/09/02 05:21:47;;;;;;;7.65;5.60;;;13.30;99.90;;;;;;5065728;28;20433;-68
2022/09/02 05:24:22;;;;;;;7.63;5.43;;;13.40;99.90;;;;;;5099785;28;20066;-69
2022/09/02 05:26:54;;;;;;;5.57;4.95;;;13.40;99.90;;;;;;5097957;28;20215;-69
2022/09/02 05:29:23;;;;;;;6.93;5.32;;;13.50;99.90;;;;;;5117519;27;20089;-69
2022/09/02 05:31:52;;;;;;;7.10;5.20;;;13.50;99.90;;;;;;5085817;28;20149;-69
2022/09/02 05:34:21;;;;;;;7.22;5.10;;;13.60;99.90;;;;;;5091360;28;20067;-68
2022/09/02 05:36:51;;;;;;;12.13;5.28;;;13.60;99.90;;;;;;5083035;28;20470;-69
2022/09/02 05:39:19;;;;;;;9.52;5.53;;;13.70;99.90;;;;;;5091789;28;20053;-69
2022/09/02 05:41:47;;;;;;;9.13;5.20;;;13.70;99.90;;;;;;5104769;27;20135;-68
2022/09/02 05:44:15;;;;;;;7.90;5.50;;;13.80;99.90;;;;;;5092481;28;20041;-68
2022/09/02 05:46:44;;;;;;;5.85;5.25;;;13.80;99.90;;;;;;5107210;27;20491;-69
2022/09/02 05:49:16;;;;;;;;;;;13.90;99.90;;;;;;5093153;28;20127;-69
2022/09/02 05:51:51;;;;;;;6.38;5.30;;;13.90;99.90;;;;;;5091977;28;19952;-69
2022/09/02 05:54:29;;;;;;;7.60;5.65;;;14.00;99.90;;;;;;5090624;28;20032;-68
2022/09/02 05:57:07;;;;;;;5.55;5.05;;;14.00;99.90;;;;;;5078586;28;20039;-69
2022/09/02 05:59:41;;;;;;;6.38;5.45;;;14.10;99.90;;;;;;5092881;28;20068;-67
2022/09/02 06:02:13;;;;;;;5.65;5.13;;;14.20;99.90;;;;;;5092664;28;20494;-69
2022/09/02 06:04:44;;;;;;;7.47;5.85;;;14.20;99.90;;;;;;5076070;28;20506;-68
2022/09/02 06:07:13;;;;;;;5.75;5.05;;;14.30;99.90;;;;;;5074496;28;20048;-68
2022/09/02 06:09:44;;;;;;;6.50;5.50;;;14.40;99.90;;;;;;5095312;28;20131;-68
2022/09/02 06:12:13;;;;;;;6.70;5.47;;;14.50;99.90;;;;;;5097177;28;20109;-68
2022/09/02 06:14:41;;;;;;;6.90;6.20;;;14.50;99.90;;;;;;5114168;27;20093;-68
2022/09/02 06:17:10;;;;;;;6.18;5.57;;;14.60;99.90;;;;;;5115641;27;20159;-69
2022/09/02 06:19:44;;;;;;;8.98;6.20;;;14.60;99.90;;;;;;5111297;27;20048;-69
2022/09/02 06:22:12;;;;;;;6.20;5.70;;;14.70;99.90;;;;;;5080509;28;20050;-69
2022/09/02 06:24:41;;;;;;;8.85;6.30;;;14.70;99.90;;;;;;5088367;28;20048;-68
2022/09/02 06:27:15;;;;;;;8.05;6.18;;;14.80;99.90;;;;;;5104605;27;20040;-68
2022/09/02 06:29:46;;;;;;;8.65;5.95;;;14.90;99.90;;;;;;5108201;27;20043;-67
2022/09/02 06:32:18;;;;;;;8.25;5.95;;;15.00;99.90;;;;;;5103596;28;20410;-69
2022/09/02 06:34:47;;;;;;;7.00;5.95;;;15.20;99.90;;;;;;5096564;28;20118;-67
2022/09/02 06:37:15;;;;;;;11.90;5.88;;;15.30;99.90;;;;;;5092668;28;20102;-68
2022/09/02 06:39:45;;;;;;;9.40;5.78;;;15.40;99.90;;;;;;5087807;28;20059;-67
2022/09/02 06:42:18;;;;;;;9.30;5.97;;;15.50;99.90;;;;;;5084645;28;20075;-69
2022/09/02 06:45:02;;;;;;;6.72;5.40;;;15.60;99.90;;;;;;5061889;28;20154;-68
2022/09/02 06:47:31;;;;;;;7.25;5.80;;;15.70;99.90;;;;;;5105008;28;20051;-68
2022/09/02 06:49:59;;;;;;;6.70;5.63;;;15.80;99.90;;;;;;5110001;27;20378;-69
2022/09/02 06:52:27;;;;;;;7.93;5.82;;;15.90;99.90;;;;;;5094954;28;20451;-67
2022/09/02 06:54:55;;;;;;;6.80;5.55;;;16.10;99.90;;;;;;5073032;28;20169;-66
2022/09/02 06:57:22;;;;;;;6.32;5.72;;;16.20;99.90;;;;;;5094517;28;20058;-68
2022/09/02 07:00:06;;;;;;;6.30;5.07;;;16.30;99.90;;;;;;5103767;28;20364;-68
2022/09/02 07:02:35;;;;;;;28.75;16.75;;;16.40;99.90;;;;;;5082106;28;20043;-68
2022/09/02 07:05:09;;;;;;;6.80;5.85;;;16.50;99.90;;;;;;5091765;27;20044;-68
2022/09/02 07:07:41;;;;;;;8.55;6.00;;;16.60;99.90;;;;;;5080233;28;20411;-68
2022/09/02 07:10:12;;;;;;;7.05;5.60;;;16.80;99.90;;;;;;5088935;28;20047;-69
2022/09/02 07:12:44;;;;;;;5.78;5.28;;;16.90;99.90;;;;;;5089664;28;20067;-68
2022/09/02 07:15:15;;;;;;;6.00;5.40;;;16.90;99.90;;;;;;5092327;28;20434;-67
2022/09/02 07:17:43;;;;;;;5.72;5.13;;;16.90;99.90;;;;;;5088778;27;20575;-68
2022/09/02 07:20:17;;;;;;;7.03;5.30;;;17.00;99.90;;;;;;5087675;28;20040;-68
2022/09/02 07:22:54;;;;;;;6.35;4.97;;;17.00;99.90;;;;;;5072506;28;20040;-66
2022/09/02 07:25:24;;;;;;;6.47;5.25;;;17.10;99.90;;;;;;5082011;28;20119;-68
2022/09/02 07:27:53;;;;;;;6.47;5.80;;;17.30;99.90;;;;;;5088664;28;20494;-68
2022/09/02 07:30:22;;;;;;;6.57;5.90;;;17.40;99.90;;;;;;5058661;28;20040;-68
2022/09/02 07:32:57;;;;;;;6.40;5.57;;;17.50;99.90;;;;;;5087056;28;20364;-68
2022/09/02 07:35:27;;;;;;;6.30;5.72;;;17.70;99.90;;;;;;5089108;28;20035;-68
2022/09/02 07:37:55;;;;;;;6.45;5.55;;;17.80;99.90;;;;;;5109487;27;20043;-69
2022/09/02 07:40:23;;;;;;;10.50;7.07;;;17.90;99.90;;;;;;5096110;28;20044;-68
2022/09/02 07:42:51;;;;;;;6.70;5.50;;;18.00;99.90;;;;;;5079870;28;20044;-71
2022/09/02 07:45:20;;;;;;;6.13;5.43;;;18.10;99.90;;;;;;5106117;27;20465;-68
2022/09/02 07:47:49;;;;;;;7.10;5.63;;;18.20;99.90;;;;;;5088004;28;20490;-68
2022/09/02 07:50:19;;;;;;;6.68;5.95;;;18.30;99.90;;;;;;5096057;28;20047;-69
2022/09/02 07:52:54;;;;;;;8.82;6.03;;;18.60;99.90;;;;;;5091397;28;20044;-69
2022/09/02 07:55:22;;;;;;;9.77;6.40;;;18.60;99.90;;;;;;5112641;27;20044;-67
2022/09/02 07:57:53;;;;;;;9.90;6.30;;;18.80;99.90;;;;;;5080715;28;20135;-68
2022/09/02 08:00:26;;;;;;;10.07;6.35;;;18.80;99.90;;;;;;5105495;27;20131;-70
2022/09/02 08:02:59;;;;;;;7.35;5.90;;;18.90;99.90;;;;;;5079480;28;20121;-68
2022/09/02 08:05:33;;;;;;;8.48;5.80;;;19.00;99.90;;;;;;5089928;28;20068;-68
2022/09/02 08:08:01;;;;;;;7.65;6.20;;;19.10;99.90;;;;;;5095138;28;20058;-68
2022/09/02 08:10:34;;;;;;;7.50;5.72;;;19.10;99.90;;;;;;5083695;28;20100;-68
2022/09/02 08:13:04;;;;;;;7.47;6.03;;;19.10;99.90;;;;;;5106213;27;20658;-68
2022/09/02 08:15:34;;;;;;;6.55;5.80;;;19.30;99.90;;;;;;5102824;28;20729;-67
2022/09/02 08:18:02;;;;;;;6.63;5.90;;;19.40;99.90;;;;;;5078429;28;20423;-68
2022/09/02 08:20:29;;;;;;;6.45;5.85;;;19.40;99.90;;;;;;5086291;28;20054;-67
2022/09/02 08:22:57;;;;;;;7.53;5.40;;;19.60;99.90;;;;;;5086815;28;20495;-68
2022/09/02 08:25:39;;;;;;;8.43;5.63;;;19.60;99.90;;;;;;5094413;28;20104;-66
2022/09/02 08:28:07;;;;;;;6.30;5.70;;;19.60;99.90;;;;;;5094132;28;20355;-68
2022/09/02 08:30:34;;;;;;;5.60;5.05;;;19.80;99.90;;;;;;5072501;28;20036;-68
2022/09/02 08:33:02;;;;;;;6.25;5.68;;;19.90;99.90;;;;;;5100696;28;20109;-66
2022/09/02 08:35:29;;;;;;;7.55;5.70;;;20.10;99.90;;;;;;5086950;28;20231;-68
2022/09/02 08:37:58;;;;;;;8.60;6.00;;;20.20;99.90;;;;;;5089517;28;20402;-68
2022/09/02 08:40:37;;;;;;;7.33;5.37;;;20.40;99.90;;;;;;5061384;28;20053;-68
2022/09/02 08:43:17;;;;;;;7.07;6.07;;;20.50;99.90;;;;;;5059126;28;20072;-69
2022/09/02 08:45:46;;;;;;;6.03;5.50;;;20.60;99.90;;;;;;5092099;28;20524;-68
2022/09/02 08:48:58;;;;;;;6.43;5.55;;;20.70;99.90;;;;;;5103332;28;20067;-68
2022/09/02 08:51:48;;;;;;;5.60;5.10;;;20.80;99.90;;;;;;5079205;28;20052;-69
2022/09/02 08:54:38;;;;;;;6.25;5.32;;;20.80;99.90;;;;;;5093940;28;20294;-68
2022/09/02 08:57:08;;;;;;;7.30;5.53;;;20.80;99.90;;;;;;5107919;27;20042;-67
2022/09/02 08:59:36;;;;;;;6.15;5.57;;;20.90;99.90;;;;;;5098634;28;20044;-68
2022/09/02 09:02:08;;;;;;;6.82;6.22;;;21.00;99.90;;;;;;5092491;28;20047;-67
2022/09/02 09:05:05;;;;;;;6.57;5.88;;;21.00;99.90;;;;;;5085548;28;20071;-69
2022/09/02 09:07:47;;;;;;;7.80;7.03;;;21.10;99.90;;;;;;5082212;28;20040;-68
2022/09/02 09:10:20;;;;;;;7.50;6.80;;;21.10;99.90;;;;;;5098318;28;20040;-68
2022/09/02 09:13:15;;;;;;;7.25;6.55;;;21.00;99.90;;;;;;5085418;28;20570;-67
2022/09/02 09:15:56;;;;;;;7.20;6.40;;;21.20;99.90;;;;;;5081006;28;20113;-67
2022/09/02 09:18:37;;;;;;;7.18;6.57;;;21.40;99.90;;;;;;5096491;28;20053;-67
2022/09/02 09:21:07;;;;;;;9.35;6.25;;;21.60;99.90;;;;;;5077972;28;20043;-68
2022/09/02 09:23:38;;;;;;;6.72;6.10;;;21.80;99.90;;;;;;5098043;28;20047;-67
2022/09/02 09:26:10;;;;;;;7.13;6.43;;;21.90;99.90;;;;;;5093948;28;20572;-66
2022/09/02 09:28:40;;;;;;;7.63;6.78;;;22.00;99.90;;;;;;5095502;28;20031;-67
2022/09/02 09:31:29;;;;;;;8.30;6.85;;;22.00;99.90;;;;;;5098371;28;20050;-68
2022/09/02 09:34:01;;;;;;;8.13;6.60;;;22.00;99.90;;;;;;5091521;28;20442;-69
2022/09/02 09:36:41;;;;;;;6.78;6.28;;;22.20;99.90;;;;;;5084876;28;20048;-68
2022/09/02 09:39:18;;;;;;;6.47;5.88;;;22.40;99.90;;;;;;5080490;28;20094;-67
2022/09/02 09:41:48;;;;;;;9.05;5.60;;;22.50;99.90;;;;;;5082150;28;20147;-69
2022/09/02 09:44:43;;;;;;;5.82;5.28;;;22.70;99.90;;;;;;5090572;28;20048;-68
2022/09/02 09:47:21;;;;;;;6.88;5.57;;;22.80;99.90;;;;;;5083835;28;20703;-66
2022/09/02 09:49:50;;;;;;;5.47;4.97;;;22.70;99.90;;;;;;5089724;28;20039;-70
2022/09/02 09:52:27;;;;;;;5.35;4.85;;;22.70;99.90;;;;;;5085590;28;20422;-66
2022/09/02 09:55:18;;;;;;;5.72;5.13;;;22.80;99.90;;;;;;5081810;28;20055;-67
2022/09/02 09:57:53;;;;;;;5.78;5.03;;;22.60;99.90;;;;;;5076289;28;20223;-67
2022/09/02 10:00:33;;;;;;;6.00;5.10;;;22.50;99.90;;;;;;5088415;28;20044;-68
2022/09/02 10:03:05;;;;;;;8.70;5.13;;;22.70;99.90;;;;;;5082850;28;20040;-68
2022/09/02 10:05:38;;;;;;;5.85;5.32;;;22.90;99.90;;;;;;5103404;28;20059;-67
2022/09/02 10:08:20;;;;;;;5.40;4.90;;;23.20;99.90;;;;;;5103279;28;20490;-68
2022/09/02 10:10:59;;;;;;;;;;;23.40;99.90;;;;;;5085684;28;20067;-69
2022/09/02 10:13:32;;;;;;;5.45;5.05;;;23.50;99.90;;;;;;5106274;28;19965;-68
2022/09/02 10:16:38;;;;;;;5.85;5.35;;;23.60;99.90;;;;;;5090375;28;20130;-69
2022/09/02 10:19:37;;;;;;;5.70;5.10;;;23.70;99.90;;;;;;5068877;28;20055;-68
2022/09/02 10:22:39;;;;;;;5.63;4.78;;;23.90;99.90;;;;;;5088090;28;20125;-67
2022/09/02 10:25:42;;;;;;;9.57;7.25;;;23.90;99.50;;;;;;5064783;28;20048;-69
2022/09/02 10:28:33;;;;;;;6.00;5.22;;;24.00;99.10;;;;;;5093285;28;20155;-68
2022/09/02 10:31:31;;;;;;;5.40;4.90;;;23.70;98.90;;;;;;5086502;28;20043;-68
2022/09/02 10:34:22;;;;;;;5.50;5.00;;;24.20;99.40;;;;;;5089192;28;20044;-70
2022/09/02 10:37:11;;;;;;;5.30;4.90;;;24.40;98.60;;;;;;5096081;28;20585;-69
2022/09/02 10:40:03;;;;;;;6.85;5.22;;;24.70;98.40;;;;;;5080967;28;20041;-69
2022/09/02 10:42:39;;;;;;;5.40;4.90;;;24.80;97.70;;;;;;5093893;28;20105;-69
2022/09/02 10:45:16;;;;;;;5.40;5.00;;;24.90;97.40;;;;;;5124755;27;20116;-68
2022/09/02 10:48:00;;;;;;;5.75;5.10;;;24.90;96.40;;;;;;5096001;28;20105;-68
2022/09/02 10:51:05;;;;;;;5.85;5.28;;;24.70;96.00;;;;;;5106931;28;20134;-69
2022/09/02 10:53:35;;;;;;;7.07;5.20;;;24.30;95.60;;;;;;5079010;28;20115;-68
2022/09/02 10:56:08;;;;;;;5.90;5.43;;;24.20;95.70;;;;;;5086541;28;20044;-70
2022/09/02 10:58:41;;;;;;;5.60;5.10;;;24.30;95.60;;;;;;5088472;28;20052;-70
2022/09/02 11:01:17;;;;;;;5.90;5.30;;;24.50;95.20;;;;;;5094035;28;20050;-70
2022/09/02 11:04:11;;;;;;;5.20;4.80;;;24.70;94.50;;;;;;5107455;28;20047;-69
2022/09/02 11:06:42;;;;;;;6.68;5.15;;;24.50;94.00;;;;;;5090928;28;20657;-68
2022/09/02 11:09:55;;;;;;;6.07;5.07;;;24.80;93.70;;;;;;5087601;28;20514;-69
2022/09/02 11:12:31;;;;;;;5.30;4.80;;;25.10;93.60;;;;;;5076980;28;20048;-69
2022/09/02 11:16:03;;;;;;;5.88;5.38;;;25.20;93.50;;;;;;5078372;28;20079;-70
2022/09/02 11:18:51;;;;;;;5.63;5.10;;;25.60;93.40;;;;;;5056015;28;20047;-69
2022/09/02 11:21:45;;;;;;;5.45;4.95;;;25.70;92.80;;;;;;5091157;28;20047;-69
2022/09/02 11:24:23;;;;;;;5.90;5.30;;;26.20;91.80;;;;;;5081528;28;20103;-68
2022/09/02 11:27:32;;;;;;;5.88;5.28;;;26.70;90.80;;;;;;5086787;28;20486;-69
2022/09/02 11:30:22;;;;;;;5.38;4.97;;;27.10;90.20;;;;;;5079270;28;20052;-68
2022/09/02 11:33:14;;;;;;;5.60;5.10;;;27.40;88.50;;;;;;5099120;28;20457;-70
2022/09/02 11:35:43;;;;;;;8.10;5.30;;;27.50;87.60;;;;;;5070360;28;20143;-68
2022/09/02 11:38:32;;;;;;;6.57;5.10;;;27.50;86.50;;;;;;5090246;28;20040;-69
2022/09/02 11:41:13;;;;;;;5.50;5.00;;;27.70;86.60;;;;;;5103079;28;20159;-70
2022/09/02 11:44:39;;;;;;;5.30;4.80;;;28.10;85.10;;;;;;5088904;28;20052;-70
2022/09/02 11:47:25;;;;;;;5.20;4.80;;;28.30;83.50;;;;;;5082393;28;20047;-70
2022/09/02 11:50:37;;;;;;;6.05;5.53;;;28.70;82.80;;;;;;5074952;28;20055;-70
2022/09/02 11:53:25;;;;;;;6.57;5.43;;;29.20;81.70;;;;;;5106855;28;20124;-69
2022/09/02 11:56:00;;;;;;;5.47;4.97;;;29.50;80.40;;;;;;5126673;27;20056;-70
2022/09/02 11:58:41;;;;;;;5.88;5.30;;;29.50;79.40;;;;;;5102676;28;20464;-69
2022/09/02 12:01:14;;;;;;;5.07;4.65;;;29.30;76.80;;;;;;5105643;28;20439;-69
2022/09/02 12:03:50;;;;;;;5.90;4.82;;;29.70;76.90;;;;;;5102688;27;20043;-69
2022/09/02 12:07:07;;;;;;;6.32;5.03;;;29.90;74.80;;;;;;5077134;28;20044;-69
2022/09/02 12:09:55;;;;;;;7.50;5.05;;;29.10;75.70;;;;;;5077118;28;20044;-69
2022/09/02 12:12:38;;;;;;;5.85;5.07;;;29.80;76.20;;;;;;5090636;28;20050;-69
2022/09/02 12:15:06;;;;;;;5.35;4.95;;;30.40;74.10;;;;;;5091270;28;20067;-71
2022/09/02 12:18:03;;;;;;;5.50;5.00;;;30.70;69.60;;;;;;5089319;28;20044;-69
2022/09/02 12:20:37;;;;;;;5.50;5.10;;;30.70;68.90;;;;;;5076562;28;20139;-68
2022/09/02 12:23:28;;;;;;;5.60;5.10;;;30.80;68.30;;;;;;5077354;28;20044;-69
2022/09/02 12:26:05;;;;;;;5.57;5.18;;;30.60;68.20;;;;;;5077074;28;20056;-69
2022/09/02 12:28:33;;;;;;;7.82;5.68;;;30.70;68.70;;;;;;5087634;28;20040;-69
2022/09/02 12:31:06;;;;;;;6.50;5.10;;;31.50;68.30;;;;;;5094421;28;20043;-69
2022/09/02 12:33:39;;;;;;;5.65;5.18;;;32.40;66.10;;;;;;5098211;28;20036;-70
2022/09/02 12:36:09;;;;;;;5.78;5.32;;;33.00;63.80;;;;;;5093844;28;20067;-69
2022/09/02 12:38:41;;;;;;;6.70;6.15;;;32.50;63.90;;;;;;5096491;28;21037;-69
2022/09/02 12:41:19;;;;;;;6.15;5.40;;;32.50;62.50;;;;;;5092438;28;20047;-69
2022/09/02 12:44:20;;;;;;;6.25;5.75;;;31.80;63.10;;;;;;5090627;28;20052;-69
2022/09/02 12:47:04;;;;;;;6.00;5.10;;;30.80;63.80;;;;;;5076181;28;20064;-69
2022/09/02 12:49:32;;;;;;;5.90;5.40;;;31.00;65.20;;;;;;5102194;28;20660;-71
2022/09/02 12:52:11;;;;;;;5.55;5.10;;;31.00;62.80;;;;;;5100301;28;20041;-68
2022/09/02 12:54:46;;;;;;;6.00;5.40;;;31.20;63.20;;;;;;5085707;28;20569;-69
2022/09/02 12:57:16;;;;;;;5.72;5.05;;;31.90;61.80;;;;;;5080500;28;20059;-70
2022/09/02 12:59:45;;;;;;;5.72;5.18;;;32.70;61.50;;;;;;5086016;28;20470;-69
2022/09/02 13:02:30;;;;;;;5.50;5.00;;;33.60;60.50;;;;;;5074202;28;20189;-69
2022/09/02 13:05:24;;;;;;;5.78;5.28;;;33.70;59.40;;;;;;5081620;28;20511;-69
2022/09/02 13:08:20;;;;;;;6.20;5.50;;;32.50;59.70;;;;;;5091282;28;20048;-70
2022/09/02 13:11:05;;;;;;;5.70;5.30;;;32.10;60.00;;;;;;5101938;27;20075;-68
2022/09/02 13:13:38;;;;;;;6.20;5.70;;;31.60;60.60;;;;;;5080250;28;20067;-68
2022/09/02 13:16:29;;;;;;;6.43;5.70;;;30.60;61.20;;;;;;5106836;27;20046;-68
2022/09/02 13:19:22;;;;;;;5.27;4.87;;;31.10;62.20;;;;;;5094621;28;20048;-69
2022/09/02 13:22:07;;;;;;;5.97;5.47;;;33.50;60.00;;;;;;5101130;28;20097;-68
2022/09/02 13:25:06;;;;;;;5.50;5.10;;;33.90;58.60;;;;;;5094759;28;20073;-69
2022/09/02 13:27:46;;;;;;;5.80;5.25;;;35.00;57.30;;;;;;5077055;28;20062;-69